Time;durP1;ratioP1;P1;durP2;ratioP2;P2;SDS_P1;SDS_P2;PMS_P1;PMS_P2;Temp;Humidity;BMP_temperature;BMP_pressure;BME280_temperature;BME280_humidity;BME280_pressure;Samples;Min_cycle;Max_cycle;Signal;HPM_P1;HPM_P2
2021/08/03 00:00:09;;;;;;;5.43;2.90;;;15.60;93.80;;;;;;5133862;28;20556;-67
2021/08/03 00:02:43;;;;;;;4.57;3.50;;;15.60;93.40;;;;;;5121478;28;20435;-67
2021/08/03 00:05:16;;;;;;;5.00;3.87;;;15.50;93.60;;;;;;5119810;28;20456;-67
2021/08/03 00:07:46;;;;;;;4.57;3.50;;;15.50;93.90;;;;;;5127356;28;20439;-67
2021/08/03 00:10:17;;;;;;;4.17;3.37;;;15.50;94.00;;;;;;5112844;28;20496;-67
2021/08/03 00:12:49;;;;;;;6.80;3.20;;;15.60;94.10;;;;;;5115612;28;20432;-67
2021/08/03 00:15:20;;;;;;;5.03;3.50;;;15.60;94.20;;;;;;5112896;28;20438;-67
2021/08/03 00:17:49;;;;;;;5.40;3.47;;;15.60;94.20;;;;;;5117413;28;20799;-67
2021/08/03 00:20:16;;;;;;;6.57;4.00;;;15.60;94.10;;;;;;5132431;28;20490;-67
2021/08/03 00:22:46;;;;;;;5.07;4.30;;;15.60;94.20;;;;;;5134888;27;20836;-67
2021/08/03 00:25:13;;;;;;;4.63;3.47;;;15.60;94.40;;;;;;5134410;27;20467;-67
2021/08/03 00:27:42;;;;;;;5.17;3.70;;;15.50;94.40;;;;;;5107012;28;20430;-67
2021/08/03 00:30:10;;;;;;;4.63;3.13;;;15.50;94.80;;;;;;5135478;27;20448;-68
2021/08/03 00:32:37;;;;;;;7.00;3.47;;;15.40;94.80;;;;;;5096188;28;20462;-67
2021/08/03 00:35:06;;;;;;;5.17;3.73;;;15.30;94.90;;;;;;5125080;27;20434;-69
2021/08/03 00:37:35;;;;;;;5.50;4.53;;;15.30;95.20;;;;;;5130832;27;20433;-69
2021/08/03 00:40:03;;;;;;;5.83;3.67;;;15.20;95.40;;;;;;5117472;27;20478;-67
2021/08/03 00:42:31;;;;;;;7.37;4.27;;;15.20;95.50;;;;;;5129898;27;20448;-66
2021/08/03 00:45:00;;;;;;;5.13;3.97;;;15.30;95.50;;;;;;5126412;27;20441;-66
2021/08/03 00:47:29;;;;;;;5.10;3.67;;;15.30;95.50;;;;;;5123259;27;20437;-67
2021/08/03 00:49:56;;;;;;;4.37;3.50;;;15.30;95.30;;;;;;5136674;27;20441;-67
2021/08/03 00:52:28;;;;;;;6.83;3.20;;;15.30;95.30;;;;;;5122877;27;20513;-67
2021/08/03 00:54:55;;;;;;;4.77;3.40;;;15.30;95.40;;;;;;5116088;28;20498;-67
2021/08/03 00:57:22;;;;;;;3.60;2.90;;;15.30;95.40;;;;;;5128859;27;20518;-67
2021/08/03 00:59:50;;;;;;;4.00;3.23;;;15.40;95.30;;;;;;5136651;27;20440;-68
2021/08/03 01:02:17;;;;;;;5.60;3.10;;;15.40;95.30;;;;;;5123719;27;20474;-67
2021/08/03 01:04:44;;;;;;;4.90;3.30;;;15.50;95.60;;;;;;5128563;27;20441;-67
2021/08/03 01:07:34;;;;;;;6.43;3.50;;;15.50;95.40;;;;;;5115662;28;20462;-67
2021/08/03 01:10:23;;;;;;;4.27;2.80;;;15.50;95.50;;;;;;5095684;28;20450;-66
2021/08/03 01:12:58;;;;;;;3.93;2.90;;;15.50;95.60;;;;;;5102707;27;20789;-67
2021/08/03 01:15:38;;;;;;;4.60;3.53;;;15.50;95.50;;;;;;5115639;27;20469;-67
2021/08/03 01:18:16;;;;;;;5.10;3.07;;;15.60;95.70;;;;;;5122550;27;20429;-66
2021/08/03 01:21:20;;;;;;;4.07;3.40;;;15.60;95.60;;;;;;5136250;27;20527;-67
2021/08/03 01:24:05;;;;;;;7.53;3.10;;;15.60;95.40;;;;;;5082395;28;20815;-67
2021/08/03 01:26:49;;;;;;;3.53;2.70;;;15.60;95.20;;;;;;5115589;28;20442;-67
2021/08/03 01:29:21;;;;;;;4.07;2.87;;;15.70;95.00;;;;;;5125951;27;20430;-67
2021/08/03 01:31:52;;;;;;;5.10;3.33;;;15.70;95.10;;;;;;5123082;27;20505;-67
2021/08/03 01:34:20;;;;;;;4.07;2.83;;;15.70;94.60;;;;;;5134942;27;20560;-67
2021/08/03 01:36:55;;;;;;;3.90;2.60;;;15.60;94.70;;;;;;5119302;27;20443;-67
2021/08/03 01:39:26;;;;;;;3.40;2.47;;;15.60;94.70;;;;;;5127818;27;20452;-67
2021/08/03 01:41:56;;;;;;;4.90;2.70;;;15.50;94.60;;;;;;5133098;27;20449;-67
2021/08/03 01:44:26;;;;;;;3.23;2.90;;;15.40;95.10;;;;;;5115162;28;20446;-66
2021/08/03 01:46:54;;;;;;;4.83;3.73;;;15.30;94.90;;;;;;5122633;27;20441;-67
2021/08/03 01:49:23;;;;;;;6.50;4.50;;;15.30;94.90;;;;;;5135655;27;20441;-67
2021/08/03 01:51:51;;;;;;;4.40;3.47;;;15.20;95.20;;;;;;5133671;27;20505;-67
2021/08/03 01:54:20;;;;;;;4.23;3.37;;;15.20;95.60;;;;;;5131457;27;20430;-67
2021/08/03 01:56:48;;;;;;;3.90;2.83;;;15.20;95.60;;;;;;5116016;27;20977;-67
2021/08/03 01:59:18;;;;;;;4.07;3.17;;;15.20;95.60;;;;;;5114807;28;20480;-67
2021/08/03 02:01:47;;;;;;;4.30;3.10;;;15.20;95.70;;;;;;5118642;27;20446;-67
2021/08/03 02:04:17;;;;;;;5.47;3.53;;;15.30;95.70;;;;;;5135341;27;20825;-67
2021/08/03 02:06:45;;;;;;;4.30;2.90;;;15.30;95.60;;;;;;5124469;27;20458;-69
2021/08/03 02:09:14;;;;;;;4.17;2.73;;;15.30;95.90;;;;;;5124947;27;20828;-67
2021/08/03 02:11:47;;;;;;;4.67;4.00;;;15.30;95.90;;;;;;5132604;27;21031;-67
2021/08/03 02:14:15;;;;;;;4.37;2.90;;;15.30;95.80;;;;;;5127824;27;20863;-67
2021/08/03 02:16:42;;;;;;;6.60;3.70;;;15.30;96.00;;;;;;5125345;27;20435;-67
2021/08/03 02:19:11;;;;;;;5.80;3.90;;;15.30;96.00;;;;;;5115446;27;20498;-67
2021/08/03 02:21:39;;;;;;;5.43;3.90;;;15.30;96.00;;;;;;5114667;28;20426;-67
2021/08/03 02:24:06;;;;;;;5.13;3.60;;;15.30;96.10;;;;;;5117210;27;20459;-67
2021/08/03 02:26:33;;;;;;;4.90;3.90;;;15.30;96.10;;;;;;5134947;27;20434;-67
2021/08/03 02:29:00;;;;;;;6.50;4.30;;;15.30;96.20;;;;;;5115527;27;20453;-66
2021/08/03 02:31:34;;;;;;;4.93;3.10;;;15.30;96.30;;;;;;5114110;28;20844;-67
2021/08/03 02:34:07;;;;;;;5.00;4.20;;;15.30;96.50;;;;;;5132255;27;20967;-67
2021/08/03 02:36:43;;;;;;;4.50;3.90;;;15.30;96.40;;;;;;5115989;27;20975;-67
2021/08/03 02:39:11;;;;;;;4.50;3.10;;;15.30;96.10;;;;;;5121441;27;21458;-66
2021/08/03 02:41:39;;;;;;;4.13;3.23;;;15.40;96.00;;;;;;5134738;27;20433;-67
2021/08/03 02:44:07;;;;;;;4.60;3.00;;;15.40;96.10;;;;;;5123546;27;20822;-67
2021/08/03 02:46:36;;;;;;;7.80;3.13;;;15.40;96.10;;;;;;5134645;27;20441;-67
2021/08/03 02:49:13;;;;;;;5.10;2.83;;;15.40;96.20;;;;;;5123782;27;20438;-67
2021/08/03 02:51:42;;;;;;;3.20;2.43;;;15.30;96.20;;;;;;5116658;27;20473;-67
2021/08/03 02:54:21;;;;;;;4.80;3.13;;;15.30;96.40;;;;;;5133939;27;20520;-67
2021/08/03 02:56:54;;;;;;;4.70;3.33;;;15.20;96.50;;;;;;5126012;27;20422;-67
2021/08/03 02:59:23;;;;;;;3.80;2.93;;;15.20;96.50;;;;;;5118489;27;20452;-67
2021/08/03 03:01:55;;;;;;;3.80;3.10;;;15.20;96.30;;;;;;5134180;27;20779;-67
2021/08/03 03:04:26;;;;;;;4.90;3.10;;;15.10;96.60;;;;;;5116536;27;20517;-67
2021/08/03 03:06:58;;;;;;;3.80;3.30;;;15.10;96.80;;;;;;5122451;27;20485;-67
2021/08/03 03:09:28;;;;;;;6.13;3.37;;;15.10;96.90;;;;;;5126232;27;20441;-67
2021/08/03 03:11:57;;;;;;;6.70;3.47;;;15.20;96.80;;;;;;5128507;27;20547;-67
2021/08/03 03:14:27;;;;;;;5.40;3.13;;;15.20;96.70;;;;;;5118620;27;20468;-67
2021/08/03 03:16:58;;;;;;;4.27;3.03;;;15.20;96.80;;;;;;5113289;28;20497;-67
2021/08/03 03:19:26;;;;;;;4.90;4.00;;;15.20;96.70;;;;;;5114619;27;20516;-67
2021/08/03 03:21:56;;;;;;;5.17;3.77;;;15.20;96.80;;;;;;5133813;27;20433;-67
2021/08/03 03:24:26;;;;;;;4.70;3.20;;;15.20;96.70;;;;;;5132839;27;20473;-66
2021/08/03 03:26:56;;;;;;;3.87;3.17;;;15.10;96.60;;;;;;5113178;28;20431;-67
2021/08/03 03:29:26;;;;;;;4.33;3.30;;;15.10;96.80;;;;;;5113102;28;20435;-68
2021/08/03 03:31:56;;;;;;;7.37;3.40;;;15.20;96.50;;;;;;5132853;27;20514;-67
2021/08/03 03:34:25;;;;;;;4.37;3.30;;;15.10;96.70;;;;;;5131515;27;20489;-67
2021/08/03 03:36:53;;;;;;;4.50;3.30;;;15.00;96.70;;;;;;5133058;27;20433;-66
2021/08/03 03:39:23;;;;;;;5.90;3.17;;;15.00;96.70;;;;;;5125935;27;20438;-67
2021/08/03 03:41:53;;;;;;;6.30;4.00;;;15.00;96.70;;;;;;5112990;28;20815;-67
2021/08/03 03:44:21;;;;;;;4.93;3.40;;;14.90;96.70;;;;;;5120404;27;20434;-67
2021/08/03 03:46:53;;;;;;;4.00;3.60;;;14.90;97.00;;;;;;5133119;27;20520;-67
2021/08/03 03:49:25;;;;;;;5.30;3.87;;;14.90;97.10;;;;;;5125903;27;20450;-71
2021/08/03 03:51:52;;;;;;;4.80;3.53;;;14.90;97.10;;;;;;5101406;28;20557;-66
2021/08/03 03:54:27;;;;;;;3.63;3.30;;;14.90;97.00;;;;;;5125867;27;20429;-67
2021/08/03 03:56:58;;;;;;;4.10;3.33;;;14.90;97.10;;;;;;5123441;28;20465;-67
2021/08/03 03:59:26;;;;;;;4.10;3.60;;;14.90;97.10;;;;;;5113005;28;20448;-67
2021/08/03 04:01:58;;;;;;;7.10;3.57;;;14.90;97.00;;;;;;5133075;28;20490;-67
2021/08/03 04:04:29;;;;;;;4.37;2.73;;;14.90;96.90;;;;;;5133272;28;20923;-68
2021/08/03 04:06:56;;;;;;;4.47;3.30;;;14.90;96.80;;;;;;5110714;28;20460;-68
2021/08/03 04:09:30;;;;;;;6.57;3.70;;;15.00;96.80;;;;;;5117845;28;20472;-67
2021/08/03 04:11:58;;;;;;;4.90;3.10;;;14.90;96.70;;;;;;5099302;28;20470;-71
2021/08/03 04:14:27;;;;;;;4.80;3.50;;;14.90;96.70;;;;;;5122321;28;20498;-67
2021/08/03 04:16:55;;;;;;;5.63;3.60;;;14.90;96.60;;;;;;5126744;28;21076;-67
2021/08/03 04:19:22;;;;;;;5.23;3.00;;;14.90;96.70;;;;;;5133570;28;20497;-67
2021/08/03 04:21:50;;;;;;;4.57;3.70;;;14.90;96.80;;;;;;5112906;28;20491;-67
2021/08/03 04:24:20;;;;;;;5.77;3.60;;;14.90;97.00;;;;;;5113068;28;20438;-67
2021/08/03 04:26:48;;;;;;;5.43;2.97;;;14.90;96.90;;;;;;5131836;28;20441;-67
2021/08/03 04:29:16;;;;;;;4.63;3.40;;;14.90;97.00;;;;;;5133423;28;20473;-67
2021/08/03 04:31:43;;;;;;;5.47;3.43;;;15.00;97.10;;;;;;5113697;28;20470;-67
2021/08/03 04:34:11;;;;;;;6.23;3.67;;;15.00;97.20;;;;;;5112888;28;20474;-68
2021/08/03 04:36:40;;;;;;;3.97;3.00;;;15.10;97.20;;;;;;5129493;28;20433;-67
2021/08/03 04:39:10;;;;;;;4.03;3.43;;;15.10;97.10;;;;;;5127583;28;20487;-67
2021/08/03 04:41:39;;;;;;;5.60;3.70;;;15.10;97.20;;;;;;5121069;28;20442;-67
2021/08/03 04:44:08;;;;;;;5.43;3.67;;;15.10;97.20;;;;;;5112827;28;20932;-69
2021/08/03 04:46:37;;;;;;;4.97;3.30;;;15.00;97.10;;;;;;5113845;28;20466;-67
2021/08/03 04:49:04;;;;;;;5.93;3.60;;;15.00;97.00;;;;;;5122927;28;20425;-67
2021/08/03 04:51:31;;;;;;;7.60;2.50;;;15.00;96.90;;;;;;5130940;28;20441;-67
2021/08/03 04:53:59;;;;;;;5.13;3.60;;;15.00;97.20;;;;;;5113709;28;20454;-67
2021/08/03 04:56:26;;;;;;;4.47;3.23;;;15.00;97.20;;;;;;5092682;28;20575;-67
2021/08/03 04:58:53;;;;;;;5.50;3.33;;;15.00;97.30;;;;;;5109535;28;20893;-67
2021/08/03 05:01:22;;;;;;;5.30;3.30;;;15.00;97.20;;;;;;5109533;28;20545;-67
2021/08/03 05:03:51;;;;;;;3.87;3.03;;;15.10;97.30;;;;;;5110004;28;20462;-67
2021/08/03 05:06:18;;;;;;;4.27;3.27;;;15.10;97.50;;;;;;5100989;28;20439;-68
2021/08/03 05:08:46;;;;;;;3.73;3.23;;;15.20;97.80;;;;;;5095563;28;20671;-67
2021/08/03 05:11:18;;;;;;;4.70;3.00;;;15.30;98.00;;;;;;5098056;28;20431;-67
2021/08/03 05:13:49;;;;;;;4.40;3.53;;;15.30;98.00;;;;;;5095185;28;20490;-68
2021/08/03 05:16:17;;;;;;;4.03;3.20;;;15.50;98.30;;;;;;5097534;28;20435;-68
2021/08/03 05:18:45;;;;;;;5.27;3.00;;;15.60;97.80;;;;;;5111851;27;20439;-67
2021/08/03 05:21:15;;;;;;;4.73;3.63;;;15.60;97.90;;;;;;5112573;28;20924;-68
2021/08/03 05:23:42;;;;;;;5.90;3.63;;;15.70;97.90;;;;;;5112477;27;20438;-68
2021/08/03 05:26:09;;;;;;;4.40;3.40;;;15.90;97.90;;;;;;5108886;28;20477;-67
2021/08/03 05:28:36;;;;;;;3.63;2.70;;;16.00;97.90;;;;;;5098017;27;20438;-66
2021/08/03 05:31:04;;;;;;;4.13;3.23;;;16.10;97.80;;;;;;5094872;28;20467;-68
2021/08/03 05:33:31;;;;;;;6.57;3.17;;;16.20;97.60;;;;;;5108939;27;20478;-68
2021/08/03 05:36:00;;;;;;;6.70;5.10;;;16.30;97.30;;;;;;5113044;28;20942;-67
2021/08/03 05:38:27;;;;;;;4.13;3.70;;;16.30;97.00;;;;;;5112913;27;20430;-66
2021/08/03 05:40:54;;;;;;;4.90;2.93;;;16.40;96.80;;;;;;5112977;27;20435;-67
2021/08/03 05:43:21;;;;;;;4.30;3.40;;;16.30;96.30;;;;;;5094832;28;20492;-67
2021/08/03 05:45:48;;;;;;;4.90;3.43;;;16.30;96.00;;;;;;5105791;27;20521;-67
2021/08/03 05:48:16;;;;;;;4.20;3.50;;;16.30;96.10;;;;;;5112907;28;20446;-67
2021/08/03 05:50:43;;;;;;;4.30;3.20;;;16.20;95.80;;;;;;5114947;27;20434;-67
2021/08/03 05:53:12;;;;;;;6.27;3.20;;;16.20;96.00;;;;;;5115102;28;20481;-67
2021/08/03 05:55:40;;;;;;;5.30;3.40;;;16.20;95.90;;;;;;5125246;27;20444;-66
2021/08/03 05:58:12;;;;;;;5.60;4.33;;;16.30;96.30;;;;;;5121239;27;20434;-67
2021/08/03 06:00:42;;;;;;;3.50;2.73;;;16.50;96.50;;;;;;5124669;27;20498;-67
2021/08/03 06:03:10;;;;;;;4.73;3.40;;;16.70;96.70;;;;;;5135528;27;20789;-67
2021/08/03 06:05:37;;;;;;;13.30;3.70;;;16.90;96.00;;;;;;5126393;27;20434;-67
2021/08/03 06:08:08;;;;;;;4.37;3.33;;;17.10;95.00;;;;;;5114955;28;20492;-68
2021/08/03 06:10:38;;;;;;;5.00;3.13;;;17.10;95.20;;;;;;5122651;27;20425;-67
2021/08/03 06:13:16;;;;;;;5.37;2.93;;;17.30;95.00;;;;;;5127265;27;20470;-69
2021/08/03 06:15:46;;;;;;;5.37;3.20;;;17.40;95.20;;;;;;5118081;27;20470;-68
2021/08/03 06:18:29;;;;;;;6.10;2.90;;;17.60;95.20;;;;;;5114796;28;20434;-67
2021/08/03 06:20:56;;;;;;;4.63;2.90;;;17.70;94.90;;;;;;5113716;28;20930;-67
2021/08/03 06:23:25;;;;;;;4.60;3.40;;;17.80;94.60;;;;;;5114324;28;20841;-67
2021/08/03 06:25:57;;;;;;;3.97;3.07;;;17.90;94.20;;;;;;5116887;27;20442;-67
2021/08/03 06:28:25;;;;;;;4.37;3.23;;;18.00;94.30;;;;;;5134602;27;20433;-67
2021/08/03 06:30:53;;;;;;;3.10;2.27;;;18.10;94.50;;;;;;5118201;27;20784;-67
2021/08/03 06:33:22;;;;;;;3.37;2.50;;;18.20;94.60;;;;;;5114245;27;20474;-67
2021/08/03 06:35:53;;;;;;;4.40;3.30;;;18.30;94.40;;;;;;5114755;27;20493;-67
2021/08/03 06:38:20;;;;;;;4.77;3.43;;;18.30;94.10;;;;;;5123597;27;20440;-67
2021/08/03 06:40:51;;;;;;;5.03;2.53;;;18.40;93.60;;;;;;5124984;27;20433;-67
2021/08/03 06:43:26;;;;;;;3.50;2.70;;;18.50;93.60;;;;;;5114537;28;20445;-67
2021/08/03 06:46:01;;;;;;;4.10;2.80;;;18.60;93.70;;;;;;5115198;27;20438;-67
2021/08/03 06:48:32;;;;;;;4.73;2.87;;;18.70;93.70;;;;;;5114363;28;20441;-67
2021/08/03 06:51:04;;;;;;;4.33;3.13;;;18.70;93.20;;;;;;5128613;27;20463;-67
2021/08/03 06:53:32;;;;;;;6.17;3.83;;;18.60;93.40;;;;;;5134852;27;20571;-67
2021/08/03 06:56:02;;;;;;;3.63;3.10;;;18.70;93.80;;;;;;5125944;27;20448;-67
2021/08/03 06:58:36;;;;;;;7.43;3.20;;;18.70;94.10;;;;;;5134732;27;20449;-67
2021/08/03 07:01:15;;;;;;;4.00;3.53;;;18.80;94.20;;;;;;5116428;27;20999;-67
2021/08/03 07:03:48;;;;;;;2.97;2.47;;;18.90;94.10;;;;;;5115096;28;20434;-71
2021/08/03 07:06:22;;;;;;;4.23;2.80;;;19.00;93.90;;;;;;5114096;28;20434;-67
2021/08/03 07:09:07;;;;;;;3.83;2.93;;;19.20;93.50;;;;;;5125649;27;20489;-67
2021/08/03 07:11:35;;;;;;;4.53;3.03;;;19.30;92.80;;;;;;5134594;27;20441;-67
2021/08/03 07:14:09;;;;;;;4.37;3.13;;;19.40;91.80;;;;;;5120584;27;20482;-67
2021/08/03 07:16:39;;;;;;;3.57;2.10;;;19.50;92.50;;;;;;5113717;28;20912;-67
2021/08/03 07:19:09;;;;;;;3.27;2.20;;;19.80;92.90;;;;;;5126596;27;20529;-67
2021/08/03 07:21:40;;;;;;;4.43;2.80;;;20.00;92.70;;;;;;5117722;27;21007;-67
2021/08/03 07:24:12;;;;;;;5.00;2.77;;;20.10;91.90;;;;;;5126401;27;20441;-67
2021/08/03 07:26:40;;;;;;;4.60;2.90;;;20.30;91.80;;;;;;5118541;27;20438;-68
2021/08/03 07:29:09;;;;;;;4.27;2.20;;;20.40;92.00;;;;;;5113563;28;20491;-67
2021/08/03 07:31:37;;;;;;;3.40;2.30;;;20.70;91.70;;;;;;5124028;27;20437;-67
2021/08/03 07:34:06;;;;;;;5.50;2.43;;;20.90;90.30;;;;;;5133728;27;20934;-67
2021/08/03 07:36:36;;;;;;;3.87;2.37;;;21.00;90.30;;;;;;5130070;27;20437;-67
2021/08/03 07:39:04;;;;;;;4.00;2.67;;;21.20;89.50;;;;;;5134060;27;20516;-67
2021/08/03 07:41:32;;;;;;;3.50;2.87;;;21.30;88.60;;;;;;5123943;27;20500;-67
2021/08/03 07:43:59;;;;;;;4.63;2.30;;;21.40;88.60;;;;;;5113321;28;20973;-68
2021/08/03 07:46:32;;;;;;;4.20;3.10;;;21.40;87.70;;;;;;5114167;27;20438;-67
2021/08/03 07:49:03;;;;;;;3.40;2.33;;;21.40;86.50;;;;;;5113407;28;20951;-67
2021/08/03 07:51:31;;;;;;;4.00;2.23;;;21.30;86.40;;;;;;5123453;27;20463;-67
2021/08/03 07:53:58;;;;;;;4.13;2.73;;;21.30;87.60;;;;;;5124206;27;20477;-67
2021/08/03 07:56:25;;;;;;;3.80;2.47;;;21.40;88.20;;;;;;5113177;28;20959;-67
2021/08/03 07:58:53;;;;;;;4.83;2.53;;;21.40;87.80;;;;;;5120794;28;20426;-67
2021/08/03 08:01:22;;;;;;;3.67;2.13;;;21.50;85.60;;;;;;5133043;28;20445;-67
2021/08/03 08:03:51;;;;;;;4.80;2.67;;;21.50;84.70;;;;;;5126492;28;20467;-67
2021/08/03 08:06:20;;;;;;;3.50;2.40;;;21.70;85.70;;;;;;5113145;28;20446;-67
2021/08/03 08:08:47;;;;;;;4.10;2.43;;;22.00;86.60;;;;;;5118774;28;20482;-67
2021/08/03 08:11:14;;;;;;;3.57;1.97;;;22.20;85.40;;;;;;5133258;28;20433;-67
2021/08/03 08:13:41;;;;;;;4.80;2.47;;;22.40;82.40;;;;;;5128583;28;20466;-68
2021/08/03 08:16:10;;;;;;;4.13;2.90;;;22.60;81.00;;;;;;5120028;28;20458;-67
2021/08/03 08:18:37;;;;;;;4.00;2.00;;;22.70;77.80;;;;;;5129818;28;20442;-68
2021/08/03 08:21:06;;;;;;;3.10;1.80;;;22.70;77.60;;;;;;5112787;28;20430;-68
2021/08/03 08:23:34;;;;;;;2.83;1.50;;;22.60;73.40;;;;;;5121820;28;20435;-67
2021/08/03 08:26:06;;;;;;;5.43;2.17;;;22.80;74.10;;;;;;5133538;28;20435;-67
2021/08/03 08:28:34;;;;;;;4.87;1.77;;;23.00;72.10;;;;;;5122665;28;20474;-68
2021/08/03 08:31:09;;;;;;;4.47;2.17;;;23.20;73.50;;;;;;5112975;28;20426;-67
2021/08/03 08:33:38;;;;;;;2.43;1.40;;;23.50;72.80;;;;;;5122341;28;20480;-68
2021/08/03 08:36:07;;;;;;;3.37;1.70;;;23.80;70.30;;;;;;5133722;28;20438;-67
2021/08/03 08:38:34;;;;;;;2.87;1.57;;;24.20;65.20;;;;;;5123919;28;20944;-67
2021/08/03 08:41:03;;;;;;;2.40;1.43;;;24.30;64.90;;;;;;5112842;28;20435;-67
2021/08/03 08:43:30;;;;;;;4.20;2.17;;;24.40;66.60;;;;;;5121232;27;20950;-67
2021/08/03 08:45:57;;;;;;;3.03;1.80;;;24.50;66.30;;;;;;5126386;27;20440;-68
2021/08/03 08:48:25;;;;;;;2.30;1.47;;;24.60;66.80;;;;;;5122732;27;20519;-67
2021/08/03 08:50:55;;;;;;;3.47;1.73;;;24.70;64.20;;;;;;5129675;27;20440;-67
2021/08/03 08:53:27;;;;;;;2.50;1.70;;;24.90;63.20;;;;;;5116672;28;20475;-67
2021/08/03 08:55:55;;;;;;;2.60;1.53;;;24.90;62.00;;;;;;5121309;27;20791;-67
2021/08/03 08:58:23;;;;;;;5.90;1.77;;;24.80;59.80;;;;;;5137135;27;20437;-67
2021/08/03 09:00:50;;;;;;;3.30;1.90;;;24.90;60.20;;;;;;5125512;27;20438;-68
2021/08/03 09:03:17;;;;;;;5.60;2.77;;;25.10;58.80;;;;;;5116324;27;20806;-67
2021/08/03 09:05:44;;;;;;;4.13;2.00;;;25.20;58.70;;;;;;5125365;27;20445;-69
2021/08/03 09:08:13;;;;;;;5.13;2.77;;;25.30;58.70;;;;;;5136169;27;20511;-67
2021/08/03 09:10:44;;;;;;;2.57;1.57;;;25.20;54.20;;;;;;5130380;27;20488;-69
2021/08/03 09:13:14;;;;;;;2.63;1.07;;;25.20;54.80;;;;;;5126279;27;20545;-67
2021/08/03 09:15:43;;;;;;;2.57;1.00;;;25.30;53.80;;;;;;5122500;27;20429;-68
2021/08/03 09:18:18;;;;;;;2.63;1.50;;;25.30;54.60;;;;;;5117239;27;20842;-67
2021/08/03 09:20:47;;;;;;;2.17;1.40;;;25.40;52.30;;;;;;5095686;28;20432;-67
2021/08/03 09:23:15;;;;;;;2.03;1.10;;;25.60;51.10;;;;;;5126594;27;20837;-67
2021/08/03 09:25:55;;;;;;;2.80;1.20;;;25.70;51.00;;;;;;5121564;27;20464;-67
2021/08/03 09:28:24;;;;;;;5.00;1.67;;;25.60;52.20;;;;;;5115739;28;20964;-67
2021/08/03 09:30:51;;;;;;;2.60;1.50;;;25.60;54.10;;;;;;5116626;27;20441;-67
2021/08/03 09:33:23;;;;;;;2.70;1.90;;;25.70;53.30;;;;;;5115468;28;20516;-67
2021/08/03 09:35:51;;;;;;;3.10;1.70;;;25.80;53.50;;;;;;5130913;27;20441;-67
2021/08/03 09:38:20;;;;;;;2.40;1.60;;;25.80;53.50;;;;;;5136022;27;20486;-67
2021/08/03 09:40:52;;;;;;;3.47;1.50;;;25.80;52.60;;;;;;5120051;27;20842;-68
2021/08/03 09:43:29;;;;;;;3.23;1.60;;;26.00;53.60;;;;;;5115617;28;20442;-67
2021/08/03 09:45:57;;;;;;;3.30;1.70;;;26.20;54.00;;;;;;5121889;27;20493;-68
2021/08/03 09:48:26;;;;;;;2.60;1.70;;;26.20;53.20;;;;;;5115340;28;20996;-67
2021/08/03 09:50:57;;;;;;;4.10;1.40;;;26.20;50.60;;;;;;5129496;27;20429;-67
2021/08/03 09:53:46;;;;;;;2.30;1.47;;;26.20;53.20;;;;;;5135842;27;20874;-67
2021/08/03 09:56:15;;;;;;;3.30;2.07;;;26.50;53.90;;;;;;5118558;27;20445;-68
2021/08/03 09:59:01;;;;;;;3.80;1.73;;;26.90;53.70;;;;;;5133809;27;20486;-68
2021/08/03 10:01:30;;;;;;;4.07;1.93;;;27.10;51.20;;;;;;5116694;27;20467;-68
2021/08/03 10:04:00;;;;;;;2.93;1.60;;;27.30;52.60;;;;;;5115233;28;20450;-68
2021/08/03 10:06:28;;;;;;;2.53;1.80;;;27.40;49.80;;;;;;5116181;27;20438;-67
2021/08/03 10:08:56;;;;;;;3.23;1.93;;;27.60;50.90;;;;;;5114921;28;20949;-67
2021/08/03 10:11:26;;;;;;;4.73;1.73;;;27.90;47.70;;;;;;5129159;27;20437;-67
2021/08/03 10:13:55;;;;;;;2.87;2.03;;;28.00;49.20;;;;;;5135510;27;20505;-67
2021/08/03 10:16:24;;;;;;;2.63;1.77;;;28.10;48.50;;;;;;5120653;27;20928;-68
2021/08/03 10:18:54;;;;;;;2.33;1.50;;;28.20;46.90;;;;;;5114935;28;20521;-68
2021/08/03 10:21:34;;;;;;;2.50;2.00;;;28.20;47.10;;;;;;5129235;27;20931;-67
2021/08/03 10:24:18;;;;;;;3.27;1.77;;;28.20;46.20;;;;;;5135501;27;20493;-67
2021/08/03 10:27:04;;;;;;;3.13;1.40;;;28.50;47.00;;;;;;5133291;27;20443;-67
2021/08/03 10:29:34;;;;;;;2.47;1.73;;;28.70;46.80;;;;;;5133397;27;20441;-67
2021/08/03 10:32:01;;;;;;;2.23;1.53;;;28.80;46.70;;;;;;5134863;27;20433;-67
2021/08/03 10:35:00;;;;;;;4.13;1.90;;;28.70;44.20;;;;;;5132154;27;21053;-67
2021/08/03 10:37:47;;;;;;;3.13;1.73;;;28.80;44.80;;;;;;5114650;28;20436;-67
2021/08/03 10:40:14;;;;;;;2.50;1.60;;;28.80;47.20;;;;;;5120729;27;20486;-75
2021/08/03 10:43:15;;;;;;;4.50;1.80;;;28.90;48.00;;;;;;5113144;28;20522;-68
2021/08/03 10:45:44;;;;;;;3.00;1.80;;;29.00;47.00;;;;;;5125753;27;20521;-67
2021/08/03 10:48:34;;;;;;;4.53;1.53;;;28.90;47.30;;;;;;5114580;27;20498;-68
2021/08/03 10:51:40;;;;;;;4.37;1.97;;;28.80;47.90;;;;;;5114868;27;20949;-73
2021/08/03 10:54:08;;;;;;;2.77;1.50;;;28.80;48.30;;;;;;5114152;28;20506;-67
2021/08/03 10:57:26;;;;;;;2.97;1.67;;;28.70;47.30;;;;;;5120505;27;20917;-67
2021/08/03 11:00:14;;;;;;;3.03;1.60;;;28.60;48.60;;;;;;5115088;27;20452;-67
2021/08/03 11:02:49;;;;;;;2.90;1.60;;;28.50;47.30;;;;;;5108151;28;20943;-67
2021/08/03 11:05:33;;;;;;;2.63;1.60;;;28.50;47.40;;;;;;5118875;27;20446;-67
2021/08/03 11:08:30;;;;;;;3.70;1.73;;;28.60;48.30;;;;;;5134669;27;20445;-68
2021/08/03 11:11:05;;;;;;;3.17;1.73;;;28.80;47.60;;;;;;5064282;28;20443;-68
2021/08/03 11:13:40;;;;;;;7.27;1.93;;;29.00;46.90;;;;;;5102726;28;20937;-68
2021/08/03 11:16:13;;;;;;;3.10;1.73;;;29.00;47.50;;;;;;5124716;27;20547;-67
2021/08/03 11:18:43;;;;;;;2.33;1.60;;;29.20;48.90;;;;;;5134367;27;20498;-68
2021/08/03 11:21:16;;;;;;;3.13;1.50;;;29.20;45.80;;;;;;5122817;27;20439;-67
2021/08/03 11:24:06;;;;;;;2.67;1.73;;;29.20;45.70;;;;;;5113762;28;20477;-67
2021/08/03 11:26:37;;;;;;;3.17;1.97;;;29.20;46.40;;;;;;5114641;27;20446;-68
2021/08/03 11:29:07;;;;;;;2.63;1.47;;;29.30;46.70;;;;;;5113876;28;20441;-68
2021/08/03 11:31:50;;;;;;;2.60;1.47;;;29.40;46.00;;;;;;5126789;27;20440;-68
2021/08/03 11:34:35;;;;;;;2.70;1.40;;;29.30;44.00;;;;;;5133781;27;20491;-68
2021/08/03 11:37:12;;;;;;;2.30;1.53;;;29.30;44.60;;;;;;5116850;27;20490;-68
2021/08/03 11:39:48;;;;;;;2.40;1.77;;;29.30;43.50;;;;;;5113840;28;20788;-67
2021/08/03 11:42:16;;;;;;;2.80;1.60;;;29.20;43.40;;;;;;5131375;27;20435;-67
2021/08/03 11:44:45;;;;;;;3.33;1.73;;;29.20;44.50;;;;;;5133941;27;20432;-68
2021/08/03 11:47:14;;;;;;;2.10;1.10;;;29.10;44.40;;;;;;5132030;27;20433;-67
2021/08/03 11:49:46;;;;;;;2.57;1.83;;;29.00;45.10;;;;;;5133715;27;20783;-68
2021/08/03 11:52:19;;;;;;;2.80;1.60;;;29.00;46.50;;;;;;5120012;27;20441;-68
2021/08/03 11:54:48;;;;;;;2.10;1.50;;;29.00;44.90;;;;;;5114242;28;20476;-70
2021/08/03 11:57:30;;;;;;;2.90;1.40;;;29.00;46.00;;;;;;5113157;28;20490;-68
2021/08/03 12:00:14;;;;;;;4.83;2.00;;;28.80;44.00;;;;;;5121120;28;20488;-67
2021/08/03 12:02:43;;;;;;;2.60;1.60;;;28.70;45.80;;;;;;5092958;28;20462;-69
2021/08/03 12:05:14;;;;;;;2.90;1.70;;;28.60;45.20;;;;;;5111793;28;20440;-68
2021/08/03 12:07:47;;;;;;;3.77;1.57;;;28.70;44.80;;;;;;5131250;28;20460;-68
2021/08/03 12:10:14;;;;;;;3.70;1.73;;;28.80;44.30;;;;;;5114450;28;20441;-68
2021/08/03 12:12:47;;;;;;;2.60;1.80;;;29.00;44.50;;;;;;5113008;28;20923;-68
2021/08/03 12:15:17;;;;;;;2.60;1.70;;;29.10;45.50;;;;;;5112802;28;20514;-68
2021/08/03 12:17:46;;;;;;;4.40;1.70;;;29.10;45.50;;;;;;5114015;27;20454;-68
2021/08/03 12:20:39;;;;;;;2.73;1.70;;;29.10;45.10;;;;;;5117281;28;20462;-67
2021/08/03 12:23:15;;;;;;;2.40;1.57;;;29.00;44.90;;;;;;5123263;27;20436;-67
2021/08/03 12:25:47;;;;;;;2.83;1.73;;;29.00;44.10;;;;;;5137568;27;20444;-68
2021/08/03 12:28:30;;;;;;;3.23;1.80;;;29.00;44.30;;;;;;5130080;27;20920;-68
2021/08/03 12:30:58;;;;;;;2.20;1.73;;;29.10;43.90;;;;;;5124842;27;20455;-68
2021/08/03 12:33:30;;;;;;;2.80;1.63;;;29.10;44.10;;;;;;5117001;28;21110;-68
2021/08/03 12:36:07;;;;;;;2.40;1.40;;;29.20;44.70;;;;;;5118945;27;20477;-67
2021/08/03 12:38:35;;;;;;;2.87;1.73;;;29.30;46.40;;;;;;5116908;27;20519;-68
2021/08/03 12:41:15;;;;;;;2.77;1.60;;;29.10;43.80;;;;;;5118920;27;20428;-68
2021/08/03 12:43:43;;;;;;;1.93;1.50;;;29.00;44.60;;;;;;5137478;27;20487;-68
2021/08/03 12:46:11;;;;;;;2.90;1.60;;;29.00;45.50;;;;;;5135334;27;20507;-68
2021/08/03 12:48:48;;;;;;;2.70;1.40;;;29.00;43.80;;;;;;5137516;27;20874;-68
2021/08/03 12:51:25;;;;;;;2.67;1.80;;;28.80;44.40;;;;;;5133588;27;20440;-68
2021/08/03 12:53:52;;;;;;;2.20;1.37;;;28.80;44.90;;;;;;5115108;28;20444;-69
2021/08/03 12:56:29;;;;;;;2.27;1.43;;;28.80;43.00;;;;;;5113965;27;20991;-67
2021/08/03 12:58:56;;;;;;;4.20;1.40;;;28.90;43.90;;;;;;5116456;27;20447;-68
2021/08/03 13:01:25;;;;;;;3.23;1.70;;;29.00;44.40;;;;;;5115040;28;20476;-68
2021/08/03 13:03:54;;;;;;;2.60;1.80;;;29.30;44.40;;;;;;5115828;27;20498;-68
2021/08/03 13:06:22;;;;;;;2.63;1.63;;;29.60;42.40;;;;;;5114285;27;20448;-67
2021/08/03 13:08:51;;;;;;;2.03;1.10;;;29.70;42.50;;;;;;5118527;27;20788;-67